Terminal Aerodrome Forecast
Issued by NWS

Home | Current Version | Previous Version | Text Only | Print | Product List | Glossary On
Versions: 1 2 3 4 5 6 7 8 9 10 11 12 13 14 15
000
FTUS42 KJAX 281720
TAFCRG
TAF
KCRG 281720Z 2818/2918 26008KT P6SM SCT050
     FM282100 17010KT P6SM SCT050
     FM291000 28002KT 6SM BR SCT006
     FM291400 31005KT P6SM SCT250=

USA.gov is the U.S. government's official web portal to all federal, state and local government web resources and services.